• Join FlightAware (Why Join?)
  • Login
  • US Flag 
12:39AM EST


 

Airport Tracker/Info


-or-


 

Live Flight TrackerFlight Track Log ✈ DAL1638 ✈ 17-May-2013 ✈ KATL - KDCA

Flight Track Log - Related Links

Times and Time Zones

All times are in EDT time to prevent confusion due to time zone crossing. See the DAL1638 flight status page for this flight to view local times or setup timezone preferences in your user account.

Time Position Orientation Groundspeed Altitude Reporting Facility
EDT Latitude Longitude Course Direction KTS MPH feet Rate Location/Type
07:47PM 33.6328 -84.4806 53° Northeast 469 540 2,800  Level Atlanta Center
07:48PM 33.6167 -84.5167 242° Southwest 213 245 3,900 2,880 Climbing Atlanta TRACON
07:49PM 33.5833 -84.5833 239° Southwest 266 306 7,000 3,000 Climbing Atlanta TRACON
07:50PM 33.7845 -83.9204 54° Northeast  Level FlightAware Approximate
07:50PM 33.5167 -84.5833 180° South 270 311 9,600  Level Atlanta TRACON
07:51PM 33.8497 -83.8117 54° Northeast  Level FlightAware Approximate
07:51PM 33.4553 -84.4694 123° Southeast 280 322 13,000  Level Atlanta Center
07:52PM 33.9214 -83.7091 53° Northeast  Level FlightAware Approximate
07:52PM 33.4975 -84.3725 62° Northeast 292 336 14,300  Level Atlanta Center
07:53PM 33.9884 -83.6018 53° Northeast  Level FlightAware Approximate
07:53PM 33.5664 -84.2956 43° Northeast 303 349 16,600  Level Atlanta Center
07:54PM 33.6314 -84.2133 46° Northeast 332 382 19,700 2,640 Climbing Atlanta Center
07:55PM 33.7044 -84.1286 44° Northeast 337 388 21,900 1,620 Climbing Atlanta Center
07:56PM 33.7672 -84.0314 52° Northeast 354 407 23,000 1,440 Climbing Atlanta Center
07:57PM 33.8214 -83.9264 58° Northeast 366 421 24,800 1,680 Climbing Atlanta Center
07:58PM 33.8797 -83.8136 58° Northeast 377 434 26,400 1,620 Climbing Atlanta Center
07:59PM 33.9400 -83.7008 57° Northeast 393 452 28,100 1,200 Climbing Atlanta Center
08:00PM 34.0022 -83.6003 53° Northeast 401 461 28,800 660 Climbing Atlanta Center
08:01PM 34.0811 -83.4769 52° Northeast 434 499 29,500 720 Climbing Atlanta Center
08:02PM 34.1597 -83.3508 53° Northeast 464 534 30,300 1,320 Climbing Atlanta Center
08:03PM 34.2403 -83.2172 54° Northeast 479 551 32,200 1,320 Climbing Atlanta Center
08:04PM 34.3208 -83.0906 52° Northeast 479 551 33,000 360 Climbing Atlanta Center
08:05PM 34.4031 -82.9586 53° Northeast 485 558 33,000  Level Atlanta Center
08:06PM 34.4811 -82.8317 53° Northeast 485 558 33,000  Level Atlanta Center
08:07PM 34.5653 -82.6917 54° Northeast 479 551 33,000  Level Atlanta Center
08:08PM 34.6472 -82.5642 52° Northeast 479 551 33,000  Level Atlanta Center
08:09PM 34.7250 -82.4364 53° Northeast 473 544 33,000  Level Atlanta Center
08:10PM 34.8047 -82.3058 53° Northeast 473 544 33,000  Level Atlanta Center
08:11PM 34.8842 -82.1753 53° Northeast 478 550 33,000  Level Atlanta Center
08:12PM 34.9533 -82.0622 53° Northeast 478 550 33,000  Level Atlanta Center
08:13PM 35.0406 -81.9181 54° Northeast 478 550 33,000  Level Atlanta Center
08:14PM 35.1069 -81.7767 60° Northeast 478 550 33,000  Level Atlanta Center
08:15PM 35.1564 -81.6281 68° East 473 544 33,000  Level Atlanta Center
08:16PM 35.2075 -81.4739 68° East 473 544 33,000  Level Atlanta Center
08:17PM 35.2583 -81.3222 68° East 478 550 33,000 -600 Level Atlanta Center
08:18PM 35.3050 -81.1706 69° East 478 550 31,900 -1,020 Descending Atlanta Center
08:19PM 35.3578 -81.0186 67° East 478 550 31,000 -480 Descending Atlanta Center
08:20PM 35.4081 -80.8664 68° East 478 550 31,000  Level Atlanta Center
08:21PM 35.4564 -80.7167 68° East 478 550 31,000  Level Atlanta Center
08:22PM 35.5064 -80.5642 68° East 478 550 31,000  Level Atlanta Center
08:23PM 35.5542 -80.4114 69° East 478 550 31,000  Level Atlanta Center
08:24PM 35.6039 -80.2611 68° East 478 550 31,000  Level Atlanta Center
08:26PM 35.6792 -80.0361 68° East 480 552 31,000  Level Washington Center
08:27PM 35.7286 -79.8828 68° East 474 545 31,000  Level Washington Center
08:28PM 35.7758 -79.7292 69° East 479 551 31,000  Level Washington Center
08:29PM 35.8303 -79.5964 63° Northeast 484 557 31,000  Level Washington Center
08:30PM 35.9244 -79.4653 48° Northeast 471 542 31,000 -180 Level Washington Center
08:32PM 36.1028 -79.2322 47° Northeast 461 531 30,600 -720 Descending Washington Center
08:33PM 36.1939 -79.1131 47° Northeast 466 536 29,000 -1,500 Descending Washington Center
08:34PM 36.2853 -78.9908 47° Northeast 466 536 27,600 -1,020 Descending Washington Center
08:35PM 36.3761 -78.8708 47° Northeast 466 536 27,000 -360 Descending Washington Center
08:36PM 36.4672 -78.7481 47° Northeast 471 542 27,000  Level Washington Center
08:37PM 36.5578 -78.6250 47° Northeast 477 549 27,000  Level Washington Center
08:38PM 36.6464 -78.5042 48° Northeast 477 549 27,000  Level Washington Center
08:39PM 36.7261 -78.3958 47° Northeast 477 549 27,000  Level Washington Center
08:40PM 36.8147 -78.2719 48° Northeast 477 549 27,000  Level Washington Center
08:41PM 36.9028 -78.1503 48° Northeast 477 549 27,000  Level Washington Center
08:42PM 36.9950 -78.0258 47° Northeast 477 549 27,000  Level Washington Center
08:43PM 37.0850 -77.9064 47° Northeast 477 549 27,000 -120 Level Washington Center
08:44PM 37.1708 -77.7839 49° Northeast 477 549 26,800 -1,020 Descending Washington Center
08:45PM 37.2644 -77.6769 42° Northeast 467 537 25,000 -1,620 Descending Washington Center
08:46PM 37.3822 -77.6200 21° North 453 521 23,600 -1,500 Descending Washington Center
08:47PM 37.4958 -77.5708 19° North 432 497 22,000 -840 Descending Washington Center
08:48PM 37.6053 -77.5106 24° Northeast 427 491 22,000 -780 Level Washington Center
08:49PM 37.7189 -77.4531 22° Northeast 427 491 20,500 -2,040 Descending Washington Center
08:50PM 37.8303 -77.3953 22° Northeast 432 497 18,100 -2,340 Descending Washington Center
08:51PM 37.9331 -77.3425 22° Northeast 418 481 15,900 -2,220 Descending Washington Center
08:52PM 38.0339 -77.2894 23° Northeast 397 457 13,700 -2,220 Descending Washington Center
08:53PM 38.1306 -77.2442 20° North 374 430 11,500 -1,860 Descending Washington Center
08:54PM 38.2189 -77.1958 23° Northeast 361 415 10,000 -780 Descending Washington Center
08:55PM 38.3089 -77.1556 19° North 346 398 10,000 -60 Level Washington Center
08:56PM 38.4053 -77.1336 10° North 336 387 9,900 -60 Descending Washington Center
08:57PM 38.4972 -77.1169 North 336 387 9,900  Level Washington Center
08:58PM 38.5911 -77.0978 North 336 387 10,000 -480 Climbing Washington Center
08:59PM 38.6708 -77.0781 11° North 315 362 9,000 -1,620 Descending Washington Center
09:00PM 38.7667 -77.0667 North 273 314 6,600 -1,380 Descending Potomac TRACON
09:01PM 38.8333 -77.1167 330° Northwest 243 280 6,100 -300 Descending Potomac TRACON
09:02PM 38.8667 -77.1667 311° West 209 241 6,100  Level Potomac TRACON
09:03PM 38.9167 -77.2167 322° Northwest 210 242 6,100  Level Potomac TRACON
09:04PM 38.9500 -77.2667 311° West 210 242 6,100  Level Potomac TRACON
09:05PM 39.0000 -77.3167 322° Northwest 211 243 6,100 -300 Level Potomac TRACON
09:06PM 39.0333 -77.3333 339° North 205 236 5,500 -720 Descending Potomac TRACON
09:07PM 39.0500 -77.2667 72° East 194 223 4,800 -900 Descending Potomac TRACON
09:08PM 39.0167 -77.2167 131° Southeast 179 206 3,700 -840 Descending Potomac TRACON
09:09PM 38.9833 -77.1833 142° Southeast 172 198 3,100 -660 Descending Potomac TRACON
09:10PM 38.9500 -77.1333 131° Southeast 171 197 2,400 -720 Descending Potomac TRACON